Time;durP1;ratioP1;P1;durP2;ratioP2;P2;SDS_P1;SDS_P2;PMS_P1;PMS_P2;Temp;Humidity;BMP_temperature;BMP_pressure;BME280_temperature;BME280_humidity;BME280_pressure;Samples;Min_cycle;Max_cycle;Signal;HPM_P1;HPM_P2
2023/06/02 00:01:01;;;;;;;;;;;12.80;99.90;;;;;;4975974;28;20335;-80
2023/06/02 00:03:30;;;;;;;;;;;12.80;99.90;;;;;;4990091;28;19917;-77
2023/06/02 00:05:57;;;;;;;;;;;12.00;99.90;;;;;;4989202;28;19996;-78
2023/06/02 00:08:23;;;;;;;;;;;12.70;99.90;;;;;;4991286;28;19909;-78
2023/06/02 00:10:48;;;;;;;;;;;12.60;99.90;;;;;;4986739;28;19940;-78
2023/06/02 00:13:13;;;;;;;;;;;11.80;99.90;;;;;;4981711;28;19910;-77
2023/06/02 00:15:40;;;;;;;;;;;;;;;;;;4989591;28;21235;-79
2023/06/02 00:18:06;;;;;;;;;;;;;;;;;;4991910;28;19929;-78
2023/06/02 00:20:31;;;;;;;;;;;11.80;99.90;;;;;;4993679;28;19916;-79
2023/06/02 00:22:57;;;;;;;5.90;1.60;;;;;;;;;;4978305;28;19906;-78
2023/06/02 00:25:23;;;;;;;5.38;1.95;;;;;;;;;;4977076;28;20399;-77
2023/06/02 00:27:49;;;;;;;5.28;1.98;;;;;;;;;;4991930;28;20105;-78
2023/06/02 00:30:15;;;;;;;5.45;1.85;;;;;;;;;;4988861;28;20038;-78
2023/06/02 00:32:41;;;;;;;5.68;2.58;;;;;;;;;;4988249;28;21597;-78
2023/06/02 00:35:07;;;;;;;4.97;2.00;;;;;;;;;;4991289;28;20030;-78
2023/06/02 00:37:34;;;;;;;6.72;2.05;;;;;;;;;;4991818;28;20032;-78
2023/06/02 00:40:00;;;;;;;5.47;2.00;;;;;;;;;;4979223;28;20026;-78
2023/06/02 00:42:26;;;;;;;6.07;2.40;;;;;;;;;;4990532;28;20080;-78
2023/06/02 00:44:51;;;;;;;5.65;2.00;;;;;;;;;;4990137;28;20026;-78
2023/06/02 00:47:17;;;;;;;7.68;2.00;;;;;;;;;;4974518;28;20026;-78
2023/06/02 00:49:43;;;;;;;3.63;1.88;;;;;;;;;;4988657;28;20073;-77
2023/06/02 00:52:09;;;;;;;3.25;1.98;;;;;;;;;;4986327;28;20513;-77
2023/06/02 00:54:36;;;;;;;7.43;2.15;;;;;;;;;;4978576;28;20494;-78
2023/06/02 00:57:02;;;;;;;7.97;2.50;;;;;;;;;;4992281;28;20080;-79
2023/06/02 00:59:28;;;;;;;;;;;11.90;99.90;;;;;;4990956;28;20140;-77
2023/06/02 01:01:54;;;;;;;;;;;11.30;99.90;;;;;;4993885;28;19914;-77
2023/06/02 01:04:20;;;;;;;;;;;;;;;;;;4973453;28;19917;-76
2023/06/02 01:06:48;;;;;;;;;;;11.20;99.90;;;;;;4993659;28;20290;-78
2023/06/02 01:09:14;;;;;;;;;;;;;;;;;;4991691;28;19906;-78
2023/06/02 01:11:39;;;;;;;;;;;11.30;99.90;;;;;;4991926;28;19910;-78
2023/06/02 01:14:05;;;;;;;;;;;;;;;;;;4989377;28;19920;-77
2023/06/02 01:16:32;;;;;;;;;;;;;;;;;;4976103;28;20293;-76
2023/06/02 01:18:59;;;;;;;;;;;11.30;99.90;;;;;;4991330;28;19917;-77
2023/06/02 01:21:26;;;;;;;;;;;;;;;;;;4990132;28;19909;-77
2023/06/02 01:23:52;;;;;;;;;;;11.20;99.90;;;;;;4977790;28;19916;-77
2023/06/02 01:26:17;;;;;;;;;;;11.40;99.90;;;;;;4995436;28;20000;-77
2023/06/02 01:28:43;;;;;;;;;;;;;;;;;;4995894;28;19914;-77
2023/06/02 01:31:16;;;;;;;;;;;11.30;99.90;;;;;;4974292;28;20345;-76
2023/06/02 01:33:43;;;;;;;;;;;;;;;;;;4993496;28;20401;-76
2023/06/02 01:36:08;;;;;;;;;;;11.20;99.90;;;;;;4991843;28;19917;-77
2023/06/02 01:38:35;;;;;;;;;;;11.20;99.90;;;;;;4993608;28;19909;-78
2023/06/02 01:41:02;;;;;;;;;;;11.10;99.90;;;;;;4977707;28;19910;-78
2023/06/02 01:43:28;;;;;;;;;;;;;;;;;;4992935;28;19917;-76
2023/06/02 01:45:53;;;;;;;;;;;;;;;;;;4978643;28;19909;-77
2023/06/02 01:48:19;;;;;;;;;;;;;;;;;;4984143;28;20390;-77
2023/06/02 01:50:45;;;;;;;;;;;11.10;99.90;;;;;;4989331;28;19960;-76
2023/06/02 01:53:11;;;;;;;;;;;;;;;;;;4990841;28;19956;-78
2023/06/02 01:55:36;;;;;;;;;;;11.10;99.90;;;;;;4977708;28;19956;-78
2023/06/02 01:58:03;;;;;;;;;;;11.10;99.90;;;;;;4994872;28;19952;-79
2023/06/02 02:00:28;;;;;;;;;;;11.40;99.90;;;;;;4993769;28;19917;-77
2023/06/02 02:02:54;;;;;;;;;;;;;;;;;;4995542;28;19905;-78
2023/06/02 02:05:20;;;;;;;;;;;12.10;99.90;;;;;;4988731;28;19964;-77
2023/06/02 02:07:47;;;;;;;;;;;11.40;99.90;;;;;;5001421;28;20391;-78
2023/06/02 02:10:13;;;;;;;;;;;;;;;;;;4995576;28;20297;-77
2023/06/02 02:12:39;;;;;;;;;;;;;;;;;;4995614;28;20004;-76
2023/06/02 02:15:06;;;;;;;;;;;;;;;;;;4994860;28;19933;-77
2023/06/02 02:17:32;;;;;;;;;;;;;;;;;;4980833;28;20342;-77
2023/06/02 02:19:58;;;;;;;;;;;11.40;99.90;;;;;;4993022;28;19952;-76
2023/06/02 02:22:24;;;;;;;;;;;11.40;99.90;;;;;;4994668;28;19976;-77
2023/06/02 02:24:52;;;;;;;;;;;11.30;99.90;;;;;;4996027;28;19944;-77
2023/06/02 02:27:18;;;;;;;;;;;11.20;99.90;;;;;;4991737;28;19957;-77
2023/06/02 02:29:44;;;;;;;;;;;;;;;;;;4994723;28;19953;-76
2023/06/02 02:32:10;;;;;;;;;;;;;;;;;;4993482;28;19910;-77
2023/06/02 02:34:38;;;;;;;;;;;11.30;99.90;;;;;;4985986;28;19964;-79
2023/06/02 02:37:06;;;;;;;;;;;11.20;99.90;;;;;;4994067;28;20379;-77
2023/06/02 02:39:32;;;;;;;;;;;;;;;;;;4982806;28;19906;-78
2023/06/02 02:41:58;;;;;;;;;;;11.30;99.90;;;;;;4987080;28;20008;-77
2023/06/02 02:44:23;;;;;;;;;;;11.30;99.90;;;;;;4993036;28;19934;-77
2023/06/02 02:46:48;;;;;;;;;;;11.30;99.90;;;;;;4980480;28;19933;-77
2023/06/02 02:49:14;;;;;;;;;;;;;;;;;;4992461;28;20279;-77
2023/06/02 02:51:40;;;;;;;;;;;11.30;99.90;;;;;;4987883;28;19957;-78
2023/06/02 02:54:05;;;;;;;;;;;11.20;99.90;;;;;;4992677;28;19909;-78
2023/06/02 02:56:32;;;;;;;;;;;;;;;;;;4973786;28;20294;-78
2023/06/02 02:58:58;;;;;;;;;;;;;;;;;;4993993;28;19910;-77
2023/06/02 03:01:24;;;;;;;;;;;11.20;99.90;;;;;;4989365;28;19909;-78
2023/06/02 03:03:50;;;;;;;;;;;;;;;;;;4967810;28;19914;-77
2023/06/02 03:06:19;;;;;;;;;;;11.10;99.90;;;;;;4991284;28;19910;-77
2023/06/02 03:08:45;;;;;;;;;;;;;;;;;;4991587;28;19920;-77
2023/06/02 03:11:11;;;;;;;;;;;;;;;;;;4985589;28;20012;-78
2023/06/02 03:13:36;;;;;;;;;;;11.20;99.90;;;;;;4992390;28;19910;-78
2023/06/02 03:16:02;;;;;;;;;;;;;;;;;;4993888;28;19972;-76
2023/06/02 03:18:29;;;;;;;;;;;11.10;99.90;;;;;;4991441;28;19968;-78
2023/06/02 03:20:58;;;;;;;;;;;;;;;;;;4991153;28;19918;-77
2023/06/02 03:23:25;;;;;;;;;;;;;;;;;;4980256;28;20358;-77
2023/06/02 03:25:51;;;;;;;;;;;11.10;99.90;;;;;;4993966;28;19905;-77
2023/06/02 03:28:17;;;;;;;;;;;11.10;99.90;;;;;;4977119;28;19910;-78
2023/06/02 03:30:43;;;;;;;;;;;;;;;;;;4977079;28;19997;-77
2023/06/02 03:33:09;;;;;;;;;;;;;;;;;;4991553;28;19996;-78
2023/06/02 03:35:35;;;;;;;;;;;11.10;99.90;;;;;;4974498;28;19952;-78
2023/06/02 03:38:00;;;;;;;;;;;11.10;99.90;;;;;;4992855;28;20335;-78
2023/06/02 03:40:26;;;;;;;;;;;;;;;;;;4993584;28;20157;-76
2023/06/02 03:42:52;;;;;;;;;;;;;;;;;;4983976;28;20335;-77
2023/06/02 03:45:18;;;;;;;;;;;11.20;99.90;;;;;;4985873;28;19910;-77
2023/06/02 03:47:43;;;;;;;;;;;11.00;99.90;;;;;;4987528;28;19905;-77
2023/06/02 03:50:09;;;;;;;;;;;11.10;99.90;;;;;;4989925;28;19943;-78
2023/06/02 03:52:34;;;;;;;;;;;11.00;99.90;;;;;;4993786;28;20286;-78
2023/06/02 03:55:00;;;;;;;;;;;11.10;99.90;;;;;;4986558;28;20393;-78
2023/06/02 03:57:25;;;;;;;;;;;;;;;;;;4995254;28;19960;-77
2023/06/02 03:59:51;;;;;;;;;;;;;;;;;;4994495;28;20401;-78
2023/06/02 04:02:17;;;;;;;;;;;11.10;99.90;;;;;;4991531;28;19917;-77
2023/06/02 04:04:43;;;;;;;;;;;;;;;;;;4984544;28;20001;-77
2023/06/02 04:07:08;;;;;;;;;;;11.20;99.90;;;;;;4990368;28;20188;-77
2023/06/02 04:09:34;;;;;;;;;;;11.10;99.90;;;;;;4993613;28;19906;-77
2023/06/02 04:12:00;;;;;;;;;;;11.30;99.90;;;;;;4992959;28;19916;-77
2023/06/02 04:14:27;;;;;;;;;;;11.20;99.90;;;;;;4993665;28;20355;-78
2023/06/02 04:16:53;;;;;;;;;;;11.30;99.90;;;;;;4990398;28;20061;-77
2023/06/02 04:19:18;;;;;;;;;;;11.20;99.90;;;;;;4985621;28;20445;-77
2023/06/02 04:21:44;;;;;;;;;;;11.30;99.90;;;;;;4992862;28;19964;-78
2023/06/02 04:24:11;;;;;;;;;;;11.40;99.90;;;;;;4991017;28;19910;-78
2023/06/02 04:26:36;;;;;;;;;;;11.30;99.90;;;;;;4987617;28;19913;-77
2023/06/02 04:29:02;;;;;;;;;;;;;;;;;;4991622;28;19910;-78
2023/06/02 04:31:37;;;;;;;;;;;11.50;99.90;;;;;;4975311;28;19918;-78
2023/06/02 04:34:03;;;;;;;;;;;;;;;;;;4992031;28;19910;-78
2023/06/02 04:36:28;;;;;;;;;;;11.30;99.90;;;;;;4990958;28;19910;-78
2023/06/02 04:38:54;;;;;;;;;;;11.50;99.90;;;;;;4992713;28;19910;-77
2023/06/02 04:41:22;;;;;;;;;;;11.50;99.90;;;;;;4986961;28;19905;-78
2023/06/02 04:43:48;;;;;;;;;;;11.40;99.90;;;;;;4988170;28;19976;-78
2023/06/02 04:46:14;;;;;;;;;;;;;;;;;;4987447;28;19917;-78
2023/06/02 04:48:40;;;;;;;;;;;11.80;99.90;;;;;;4991218;28;19910;-78
2023/06/02 04:51:07;;;;;;;;;;;;;;;;;;4987104;28;20428;-76
2023/06/02 04:53:32;;;;;;;;;;;11.60;99.90;;;;;;4988205;28;19920;-78
2023/06/02 04:55:58;;;;;;;;;;;;;;;;;;4986834;28;20000;-78
2023/06/02 04:58:24;;;;;;;;;;;12.80;99.90;;;;;;4977951;28;19933;-78
2023/06/02 05:00:50;;;;;;;;;;;12.90;99.90;;;;;;4989222;28;20342;-76
2023/06/02 05:03:15;;;;;;;;;;;12.70;99.90;;;;;;4990379;28;19916;-78
2023/06/02 05:05:40;;;;;;;;;;;12.80;99.90;;;;;;4971525;28;19909;-78
2023/06/02 05:08:06;;;;;;;;;;;12.20;99.90;;;;;;4992759;28;20355;-77
2023/06/02 05:10:32;;;;;;;4.30;2.22;;;;;;;;;;4991224;28;19913;-77
2023/06/02 05:12:58;;;;;;;4.00;2.20;;;;;;;;;;4965983;28;20062;-78
2023/06/02 05:15:24;;;;;;;4.35;2.42;;;;;;;;;;4991875;28;20014;-78
2023/06/02 05:17:50;;;;;;;6.82;2.38;;;;;;;;;;4991509;28;20079;-77
2023/06/02 05:20:16;;;;;;;5.43;2.88;;;;;;;;;;4991764;28;20082;-77
2023/06/02 05:22:42;;;;;;;4.95;2.45;;;;;;;;;;4993024;28;20475;-79
2023/06/02 05:25:08;;;;;;;;;;;13.50;99.90;;;;;;4988566;28;20034;-79
2023/06/02 05:27:33;;;;;;;;;;;12.70;99.90;;;;;;4989623;28;19923;-77
2023/06/02 05:29:59;;;;;;;;;;;13.60;99.90;;;;;;4988193;28;19921;-78
2023/06/02 05:32:24;;;;;;;;;;;13.60;99.90;;;;;;4992537;28;19913;-79
2023/06/02 05:34:50;;;;;;;;;;;;;;;;;;4990897;28;19905;-78
2023/06/02 05:37:16;;;;;;;;;;;;;;;;;;4992971;28;19910;-78
2023/06/02 05:39:41;;;;;;;;;;;13.90;99.90;;;;;;4975726;28;20477;-77
2023/06/02 05:42:07;;;;;;;;;;;14.00;99.90;;;;;;4990680;28;19910;-78
2023/06/02 05:44:33;;;;;;;;;;;14.00;99.90;;;;;;4992006;28;19988;-78
2023/06/02 05:46:58;;;;;;;;;;;14.10;99.90;;;;;;4989083;28;20398;-78
2023/06/02 05:49:23;;;;;;;;;;;14.40;99.90;;;;;;4989206;28;20348;-76
2023/06/02 05:51:49;;;;;;;;;;;14.40;99.90;;;;;;4972959;28;19913;-78
2023/06/02 05:54:15;;;;;;;4.38;2.13;;;;;;;;;;4992141;28;19945;-78
2023/06/02 05:56:41;;;;;;;4.78;2.10;;;;;;;;;;4992417;28;20052;-79
2023/06/02 05:59:09;;;;;;;6.90;3.13;;;17.20;99.90;;;;;;5000967;28;20498;-79
2023/06/02 06:01:35;;;;;;;4.70;2.55;;;;;;;;;;4993512;28;20027;-77
2023/06/02 06:04:01;;;;;;;4.53;2.33;;;;;;;;;;4996701;28;20057;-79
2023/06/02 06:06:27;;;;;;;6.15;2.17;;;;;;;;;;4972501;28;20458;-79
2023/06/02 06:08:53;;;;;;;4.53;2.25;;;;;;;;;;4992956;28;20023;-79
2023/06/02 06:11:19;;;;;;;;;;;18.50;99.90;;;;;;4990077;28;20089;-78
2023/06/02 06:13:45;;;;;;;2.83;1.60;;;;;;;;;;4990971;28;19910;-79
2023/06/02 06:16:10;;;;;;;;;;;18.50;99.90;;;;;;4991269;28;20034;-79
2023/06/02 06:18:37;;;;;;;;;;;20.10;97.90;;;;;;4989253;28;19910;-80
2023/06/02 06:21:02;;;;;;;;;;;20.30;97.10;;;;;;4989028;28;19909;-79
2023/06/02 06:23:28;;;;;;;;;;;22.00;93.70;;;;;;4991951;28;19913;-79
2023/06/02 06:25:53;;;;;;;;;;;22.70;91.30;;;;;;4990195;28;19952;-78
2023/06/02 06:28:20;;;;;;;;;;;24.10;89.50;;;;;;4990902;28;19914;-82
2023/06/02 06:30:46;;;;;;;;;;;26.60;73.90;;;;;;4995192;28;19967;-81
2023/06/02 06:33:12;;;;;;;;;;;27.30;66.90;;;;;;4993742;28;19917;-78
2023/06/02 06:35:37;;;;;;;;;;;27.70;61.70;;;;;;4983625;28;19918;-80
2023/06/02 06:38:04;;;;;;;;;;;27.40;61.00;;;;;;4995201;28;20004;-78
2023/06/02 06:40:31;;;;;;;;;;;27.40;62.50;;;;;;4992575;28;19918;-78
2023/06/02 06:42:57;;;;;;;;;;;28.10;60.00;;;;;;4972414;28;20013;-80
2023/06/02 06:45:23;;;;;;;;;;;28.60;56.20;;;;;;4998606;28;20044;-79
2023/06/02 06:47:50;;;;;;;;;;;29.20;57.40;;;;;;4985637;28;19913;-79
2023/06/02 06:50:16;;;;;;;;;;;27.50;58.10;;;;;;4980225;28;19921;-78
2023/06/02 06:52:41;;;;;;;;;;;27.10;60.40;;;;;;4994659;28;19906;-79
2023/06/02 06:55:07;;;;;;;;;;;26.90;60.30;;;;;;4992068;28;19993;-78
2023/06/02 06:57:32;;;;;;;;;;;27.20;59.20;;;;;;4995736;28;20264;-78
2023/06/02 06:59:58;;;;;;;;;;;27.10;59.50;;;;;;4994269;28;20445;-78
2023/06/02 07:02:23;;;;;;;;;;;27.00;59.00;;;;;;4991269;28;19909;-77
2023/06/02 07:04:49;;;;;;;;;;;27.10;59.50;;;;;;4995720;28;19914;-78
2023/06/02 07:07:14;;;;;;;;;;;26.60;60.50;;;;;;4991745;28;19910;-79
2023/06/02 07:09:41;;;;;;;;;;;26.30;60.60;;;;;;4993465;28;19910;-77
2023/06/02 07:12:07;;;;;;;;;;;25.90;62.70;;;;;;4978027;28;19910;-78
2023/06/02 07:14:32;;;;;;;;;;;26.50;61.60;;;;;;4989704;28;19926;-76
2023/06/02 07:16:59;;;;;;;;;;;26.60;62.20;;;;;;4990621;28;19914;-79
2023/06/02 07:19:25;;;;;;;;;;;25.80;62.40;;;;;;4992377;28;19932;-78
2023/06/02 07:21:51;;;;;;;;;;;26.20;61.00;;;;;;4990042;28;20355;-78
2023/06/02 07:24:16;;;;;;;;;;;26.40;61.10;;;;;;4993159;28;19980;-78
2023/06/02 07:26:42;;;;;;;;;;;25.50;62.10;;;;;;4977079;28;19992;-78
2023/06/02 07:29:08;;;;;;;;;;;26.10;62.90;;;;;;4992167;28;20405;-78
2023/06/02 07:31:33;;;;;;;;;;;25.90;65.50;;;;;;4993310;28;19913;-78
2023/06/02 07:33:59;;;;;;;;;;;25.70;63.00;;;;;;4994547;28;20394;-78
2023/06/02 07:36:24;;;;;;;;;;;25.50;63.50;;;;;;4990373;28;19972;-81
2023/06/02 07:38:50;;;;;;;;;;;25.90;62.40;;;;;;5000675;28;19916;-77
2023/06/02 07:41:15;;;;;;;;;;;25.80;64.50;;;;;;4992210;28;19920;-79
2023/06/02 07:43:41;;;;;;;;;;;25.00;63.40;;;;;;4992754;28;20412;-76
2023/06/02 07:46:06;;;;;;;;;;;24.60;66.00;;;;;;4978225;28;19925;-78
2023/06/02 07:48:31;;;;;;;;;;;24.20;66.30;;;;;;4992709;28;20409;-80
2023/06/02 07:50:57;;;;;;;;;;;23.50;65.40;;;;;;4991328;28;19968;-78
2023/06/02 07:53:22;;;;;;;;;;;24.10;68.80;;;;;;4986900;28;20086;-79
2023/06/02 07:55:48;;;;;;;;;;;23.60;69.40;;;;;;4996546;28;20267;-80
2023/06/02 07:58:13;;;;;;;;;;;22.70;69.60;;;;;;4998025;28;19902;-77
2023/06/02 08:00:39;;;;;;;;;;;;;;;;;;4989915;28;20349;-78
2023/06/02 08:03:05;;;;;;;;;;;21.80;75.30;;;;;;4992427;28;19913;-77
2023/06/02 08:05:30;;;;;;;;;;;21.50;76.90;;;;;;4990813;28;20370;-77
2023/06/02 08:07:56;;;;;;;;;;;21.40;75.80;;;;;;4975221;28;19960;-79
2023/06/02 08:10:21;;;;;;;;;;;21.30;76.40;;;;;;4993360;28;19924;-79
2023/06/02 08:12:47;;;;;;;;;;;21.20;77.50;;;;;;4991779;28;20421;-76
2023/06/02 08:15:12;;;;;;;;;;;21.30;79.30;;;;;;4975553;28;19918;-78
2023/06/02 08:17:38;;;;;;;;;;;21.70;79.90;;;;;;4992018;28;20127;-77
2023/06/02 08:20:03;;;;;;;;;;;22.00;73.50;;;;;;4992664;28;20382;-78
2023/06/02 08:22:33;;;;;;;;;;;22.40;72.60;;;;;;4991453;28;20212;-79
2023/06/02 08:25:00;;;;;;;;;;;22.70;72.40;;;;;;4991000;28;19977;-78
2023/06/02 08:27:26;;;;;;;;;;;22.80;70.90;;;;;;4993368;28;19916;-78
2023/06/02 08:29:52;;;;;;;;;;;22.10;74.10;;;;;;4990017;28;19909;-79
2023/06/02 08:32:18;;;;;;;;;;;22.30;74.10;;;;;;4989669;28;19921;-76
2023/06/02 08:34:47;;;;;;;;;;;22.40;73.50;;;;;;4992827;28;19906;-79
2023/06/02 08:37:16;;;;;;;;;;;23.60;68.30;;;;;;4989803;28;19960;-78
2023/06/02 08:39:44;;;;;;;;;;;24.50;65.70;;;;;;4988904;28;19964;-78
2023/06/02 08:42:10;;;;;;;;;;;25.60;65.20;;;;;;4989197;28;20346;-79
2023/06/02 08:44:37;;;;;;;;;;;26.50;61.70;;;;;;4996666;28;19914;-80
2023/06/02 08:47:03;;;;;;;;;;;27.50;57.90;;;;;;4993913;28;20386;-80
2023/06/02 08:49:29;;;;;;;;;;;27.50;57.60;;;;;;4980366;28;20016;-79
2023/06/02 08:51:59;;;;;;;;;;;28.90;53.80;;;;;;4990720;28;20036;-79
2023/06/02 08:54:25;;;;;;;;;;;29.70;53.00;;;;;;4989945;28;19910;-79
2023/06/02 08:56:51;;;;;;;;;;;30.20;53.40;;;;;;4991588;28;19917;-78
2023/06/02 08:59:20;;;;;;;;;;;30.50;52.50;;;;;;4992738;28;19916;-79
2023/06/02 09:01:46;;;;;;;;;;;30.50;50.90;;;;;;4977681;28;20395;-79
2023/06/02 09:04:13;;;;;;;;;;;30.20;49.20;;;;;;4994685;28;19910;-78
2023/06/02 09:06:39;;;;;;;;;;;30.90;49.50;;;;;;4990118;28;19914;-79
2023/06/02 09:09:04;;;;;;;;;;;30.30;49.30;;;;;;4993060;28;19910;-77
2023/06/02 09:11:30;;;;;;;;;;;28.90;53.10;;;;;;4991574;28;19914;-78
2023/06/02 09:13:56;;;;;;;;;;;29.10;52.20;;;;;;4989804;28;19910;-80
2023/06/02 09:16:22;;;;;;;;;;;29.80;50.10;;;;;;4990541;28;20386;-80
2023/06/02 09:19:01;;;;;;;;;;;29.90;50.20;;;;;;4994734;28;19957;-79
2023/06/02 09:21:28;;;;;;;;;;;30.50;50.10;;;;;;4989454;28;19909;-80
2023/06/02 09:23:54;;;;;;;;;;;29.80;50.50;;;;;;4992364;28;20396;-79
2023/06/02 09:26:24;;;;;;;;;;;28.90;55.60;;;;;;4991628;28;20369;-79
2023/06/02 09:29:06;;;;;;;;;;;28.10;53.90;;;;;;4989760;28;19920;-79
2023/06/02 09:31:47;;;;;;;;;;;27.40;55.50;;;;;;4991356;28;19921;-81
2023/06/02 09:34:13;;;;;;;;;;;26.10;59.50;;;;;;4992116;28;20425;-76
2023/06/02 09:36:39;;;;;;;;;;;24.10;61.30;;;;;;4993797;28;19914;-78
2023/06/02 09:39:10;;;;;;;;;;;24.90;64.20;;;;;;4989276;28;19937;-78
2023/06/02 09:41:36;;;;;;;;;;;24.20;69.90;;;;;;4995413;28;19910;-79
2023/06/02 09:44:03;;;;;;;;;;;22.90;70.30;;;;;;4993243;28;20004;-77
2023/06/02 09:46:31;;;;;;;;;;;22.70;71.30;;;;;;4990588;28;19964;-79
2023/06/02 09:48:59;;;;;;;;;;;23.70;72.10;;;;;;4989123;28;19906;-78
2023/06/02 09:51:25;;;;;;;;;;;22.60;70.80;;;;;;4990499;28;20403;-79
2023/06/02 09:53:51;;;;;;;;;;;23.00;71.90;;;;;;4981997;28;19910;-78
2023/06/02 09:56:22;;;;;;;;;;;23.30;72.10;;;;;;4994731;28;20422;-78
2023/06/02 09:58:48;;;;;;;;;;;22.20;74.90;;;;;;4993472;28;19964;-77
2023/06/02 10:01:16;;;;;;;;;;;22.00;74.40;;;;;;4996154;28;19909;-80
2023/06/02 10:03:42;;;;;;;;;;;22.20;74.60;;;;;;4996344;28;19960;-78
2023/06/02 10:06:14;;;;;;;;;;;22.30;73.70;;;;;;4993581;28;20317;-79
2023/06/02 10:08:53;;;;;;;;;;;22.10;76.30;;;;;;4978773;28;20374;-81
2023/06/02 10:11:21;;;;;;;;;;;21.90;73.00;;;;;;4994252;28;19956;-79
2023/06/02 10:13:50;;;;;;;;;;;22.00;72.60;;;;;;4991994;28;19898;-79
2023/06/02 10:16:22;;;;;;;;;;;22.40;73.00;;;;;;4993390;28;20498;-79
2023/06/02 10:18:47;;;;;;;;;;;21.80;73.00;;;;;;4995389;28;19916;-77
2023/06/02 10:21:18;;;;;;;;;;;21.50;74.10;;;;;;4993978;28;19936;-80
2023/06/02 10:23:45;;;;;;;;;;;21.50;75.50;;;;;;4997847;28;19906;-77
2023/06/02 10:26:13;;;;;;;;;;;21.70;74.20;;;;;;4993250;28;20417;-79
2023/06/02 10:28:40;;;;;;;;;;;21.40;76.30;;;;;;4980227;28;19913;-77
2023/06/02 10:31:07;;;;;;;;;;;21.60;74.60;;;;;;4988092;28;19914;-78
2023/06/02 10:33:40;;;;;;;;;;;22.10;75.00;;;;;;4977313;28;19941;-78
2023/06/02 10:36:06;;;;;;;;;;;21.70;74.10;;;;;;4970796;28;19913;-77
2023/06/02 10:38:31;;;;;;;;;;;21.80;73.30;;;;;;4989397;28;19916;-79
2023/06/02 10:40:57;;;;;;;;;;;21.70;73.80;;;;;;4989015;28;19932;-78
2023/06/02 10:43:23;;;;;;;;;;;21.70;74.50;;;;;;4992025;28;19914;-78
2023/06/02 10:45:50;;;;;;;;;;;21.70;73.90;;;;;;4992868;28;20374;-78
2023/06/02 10:48:35;;;;;;;;;;;21.60;75.50;;;;;;4991465;28;20172;-79
2023/06/02 10:51:01;;;;;;;;;;;21.60;77.10;;;;;;4994305;28;20004;-79
2023/06/02 10:53:26;;;;;;;;;;;21.80;73.80;;;;;;4991258;28;20004;-78
2023/06/02 10:55:52;;;;;;;;;;;21.80;74.70;;;;;;4987468;28;20436;-78
2023/06/02 10:58:19;;;;;;;;;;;21.70;74.80;;;;;;4990905;28;19917;-80
2023/06/02 11:00:46;;;;;;;;;;;22.00;73.90;;;;;;4995424;28;19906;-78
2023/06/02 11:03:15;;;;;;;;;;;21.70;73.70;;;;;;4990886;28;19917;-79
2023/06/02 11:05:41;;;;;;;;;;;21.70;74.40;;;;;;4975896;28;20379;-80
2023/06/02 11:08:25;;;;;;;;;;;21.90;72.60;;;;;;4990746;28;19992;-78
2023/06/02 11:10:52;;;;;;;;;;;21.90;72.10;;;;;;4990940;28;20004;-80
2023/06/02 11:13:20;;;;;;;;;;;21.80;71.20;;;;;;4989375;28;19910;-79
2023/06/02 11:15:58;;;;;;;;;;;22.00;72.00;;;;;;4994641;28;19936;-79
2023/06/02 11:18:32;;;;;;;;;;;21.90;71.30;;;;;;4993162;28;19936;-79
2023/06/02 11:21:18;;;;;;;;;;;21.90;71.80;;;;;;4986218;28;19972;-78
2023/06/02 11:23:44;;;;;;;;;;;22.00;74.00;;;;;;4993123;28;20271;-77
2023/06/02 11:26:21;;;;;;;;;;;22.00;72.40;;;;;;4990671;28;19925;-78
2023/06/02 11:28:55;;;;;;;;;;;22.50;73.00;;;;;;4994184;28;19917;-80
2023/06/02 11:31:22;;;;;;;;;;;21.70;72.60;;;;;;4978557;28;19913;-79
2023/06/02 11:33:48;;;;;;;;;;;22.00;73.40;;;;;;4993441;28;19917;-78
2023/06/02 11:36:14;;;;;;;;;;;22.00;73.50;;;;;;4994452;28;19917;-78
2023/06/02 11:38:40;;;;;;;;;;;22.10;74.10;;;;;;4993254;28;19909;-79
2023/06/02 11:41:10;;;;;;;;;;;22.10;72.70;;;;;;4991080;28;19909;-77
2023/06/02 11:43:36;;;;;;;;;;;22.00;72.40;;;;;;4990959;28;19910;-78
2023/06/02 11:46:05;;;;;;;;;;;21.80;74.70;;;;;;4985174;28;19992;-76
2023/06/02 11:48:31;;;;;;;;;;;22.00;74.90;;;;;;4994178;28;19975;-79
2023/06/02 11:50:57;;;;;;;;;;;22.00;72.40;;;;;;4996364;28;19993;-78
2023/06/02 11:53:22;;;;;;;;;;;22.20;72.30;;;;;;4992398;28;20321;-78
2023/06/02 11:55:48;;;;;;;;;;;22.30;73.50;;;;;;4993434;28;19975;-80
2023/06/02 11:58:20;;;;;;;;;;;22.20;71.30;;;;;;4991625;28;19917;-80
2023/06/02 12:00:46;;;;;;;;;;;22.10;70.90;;;;;;4991956;28;19929;-80
2023/06/02 12:03:12;;;;;;;;;;;22.80;71.70;;;;;;4992591;28;19953;-77
2023/06/02 12:05:42;;;;;;;;;;;22.20;72.60;;;;;;4982831;28;19909;-80
2023/06/02 12:08:07;;;;;;;;;;;22.00;73.10;;;;;;4991862;28;19914;-78
2023/06/02 12:10:34;;;;;;;;;;;22.10;72.50;;;;;;4995672;28;19913;-78
2023/06/02 12:12:59;;;;;;;;;;;22.10;71.20;;;;;;4992625;28;20313;-79
2023/06/02 12:15:32;;;;;;;;;;;22.10;71.20;;;;;;4994426;28;19913;-80
2023/06/02 12:17:58;;;;;;;;;;;23.30;76.00;;;;;;5010362;28;19906;-80
2023/06/02 12:20:33;;;;;;;;;;;23.20;72.70;;;;;;5013694;28;19921;-79
2023/06/02 12:22:58;;;;;;;;;;;22.40;72.20;;;;;;5014627;28;19906;-77
2023/06/02 12:25:23;;;;;;;;;;;22.30;72.50;;;;;;5013877;28;19925;-78
2023/06/02 12:27:50;;;;;;;;;;;24.10;73.40;;;;;;5012719;28;19914;-79
2023/06/02 12:30:16;;;;;;;;;;;22.30;71.10;;;;;;5013145;28;19910;-79
2023/06/02 12:32:42;;;;;;;7.18;2.25;;;;;;;;;;5006098;28;19957;-80
2023/06/02 12:35:08;;;;;;;5.68;2.40;;;;;;;;;;4994506;28;20182;-81
2023/06/02 12:37:34;;;;;;;4.93;1.80;;;;;;;;;;4994089;28;20149;-80
2023/06/02 12:40:01;;;;;;;11.25;2.00;;;;;;;;;;4992275;28;20113;-80
2023/06/02 12:42:27;;;;;;;3.03;2.05;;;;;;;;;;4992654;28;20062;-80
2023/06/02 12:44:54;;;;;;;2.65;1.48;;;;;;;;;;4989906;28;22147;-81
2023/06/02 12:47:21;;;;;;;3.00;2.10;;;;;;;;;;4992993;28;20025;-80
2023/06/02 12:49:47;;;;;;;4.80;1.75;;;22.20;68.80;;;;;;4993045;28;20018;-82
2023/06/02 12:52:14;;;;;;;5.57;1.85;;;22.90;70.20;;;;;;4976505;28;20113;-81
2023/06/02 12:54:40;;;;;;;8.10;1.88;;;;;;;;;;4980054;28;20030;-82
2023/06/02 12:57:07;;;;;;;3.70;1.65;;;;;;;;;;4974844;28;20027;-78
2023/06/02 12:59:33;;;;;;;4.55;1.52;;;;;;;;;;4992969;28;20038;-79
2023/06/02 13:01:59;;;;;;;3.58;2.10;;;;;;;;;;4989165;28;20031;-82
2023/06/02 13:04:25;;;;;;;3.10;1.58;;;;;;;;;;4991976;28;20033;-78
2023/06/02 13:06:51;;;;;;;2.22;1.55;;;;;;;;;;4970775;28;20030;-81
2023/06/02 13:09:17;;;;;;;2.63;1.60;;;;;;;;;;4975522;28;20089;-80
2023/06/02 13:11:43;;;;;;;5.18;1.88;;;;;;;;;;4976995;28;21260;-79
2023/06/02 13:14:10;;;;;;;4.80;1.55;;;23.70;70.20;;;;;;5003225;28;20034;-77
2023/06/02 13:16:36;;;;;;;5.20;1.83;;;;;;;;;;4991564;28;20380;-78
2023/06/02 13:19:02;;;;;;;3.35;1.35;;;;;;;;;;4995242;28;20105;-79
2023/06/02 13:21:29;;;;;;;3.83;1.30;;;23.10;77.60;;;;;;4979424;28;20027;-82
2023/06/02 13:23:57;;;;;;;4.60;2.15;;;;;;;;;;4996133;28;20022;-82
2023/06/02 13:26:23;;;;;;;3.65;2.20;;;;;;;;;;4997035;28;20022;-81
2023/06/02 13:28:49;;;;;;;2.53;1.50;;;;;;;;;;4992414;28;20053;-80
2023/06/02 13:31:15;;;;;;;4.82;2.15;;;22.70;87.20;;;;;;4993235;28;20072;-79
2023/06/02 13:33:41;;;;;;;5.38;1.77;;;;;;;;;;4995523;28;20085;-81
2023/06/02 13:36:07;;;;;;;5.20;1.80;;;;;;;;;;4988084;28;20038;-80
2023/06/02 13:38:33;;;;;;;5.30;2.30;;;;;;;;;;4972665;28;20387;-78
2023/06/02 13:40:59;;;;;;;4.93;2.22;;;;;;;;;;4994814;28;20556;-80
2023/06/02 13:43:25;;;;;;;6.88;1.75;;;;;;;;;;4992559;28;20034;-77
2023/06/02 13:45:51;;;;;;;2.35;1.83;;;;;;;;;;4992278;28;20041;-80
2023/06/02 13:48:17;;;;;;;6.05;1.83;;;22.50;88.20;;;;;;4980406;28;20121;-78
2023/06/02 13:50:43;;;;;;;2.33;1.42;;;;;;;;;;5000340;28;20030;-79
2023/06/02 13:53:09;;;;;;;7.80;2.38;;;;;;;;;;4954219;28;20037;-80
2023/06/02 13:55:35;;;;;;;3.55;1.70;;;;;;;;;;4993933;28;20655;-79
2023/06/02 13:58:01;;;;;;;3.05;1.52;;;;;;;;;;4994889;28;20160;-78
2023/06/02 14:00:26;;;;;;;3.28;1.73;;;;;;;;;;4995426;28;20034;-81
2023/06/02 14:02:52;;;;;;;4.35;1.77;;;;;;;;;;4986993;28;20042;-80
2023/06/02 14:05:18;;;;;;;9.85;1.77;;;;;;;;;;4971908;28;20057;-79
2023/06/02 14:07:44;;;;;;;2.35;1.23;;;;;;;;;;4971104;28;20034;-80
2023/06/02 14:10:10;;;;;;;4.63;1.70;;;;;;;;;;4992293;28;20457;-78
2023/06/02 14:12:36;;;;;;;4.63;1.25;;;;;;;;;;4986884;28;20037;-78
2023/06/02 14:15:03;;;;;;;8.25;1.80;;;;;;;;;;4989634;28;20022;-75
2023/06/02 14:17:29;;;;;;;2.70;1.30;;;;;;;;;;4993342;28;20062;-78
2023/06/02 14:19:55;;;;;;;9.10;1.25;;;;;;;;;;4993092;28;20031;-76
2023/06/02 14:22:23;;;;;;;4.13;1.48;;;;;;;;;;4989991;28;20018;-79
2023/06/02 14:24:49;;;;;;;3.30;1.58;;;;;;;;;;4974644;28;20380;-79
2023/06/02 14:27:15;;;;;;;3.45;1.40;;;;;;;;;;4991490;28;20027;-79
2023/06/02 14:29:41;;;;;;;5.82;2.25;;;;;;;;;;4980053;28;20027;-80
2023/06/02 14:32:07;;;;;;;3.83;1.73;;;;;;;;;;4989698;28;20857;-81